createdAt,value
2024-02-09T00:00:04.129Z,1.40
2024-02-09T00:02:36.377Z,1.50
2024-02-09T00:05:08.511Z,1.90
2024-02-09T00:07:41.244Z,6.00
2024-02-09T00:10:13.589Z,3.80
2024-02-09T00:12:44.899Z,3.40
2024-02-09T00:17:46.207Z,2.40
2024-02-09T00:20:17.597Z,3.20
2024-02-09T00:22:50.597Z,2.50
2024-02-09T00:25:22.020Z,2.70
2024-02-09T00:27:53.106Z,2.40
2024-02-09T00:30:26.329Z,2.40
2024-02-09T00:32:59.697Z,2.70
2024-02-09T00:35:33.855Z,2.20
2024-02-09T00:38:06.366Z,2.20
2024-02-09T00:40:37.771Z,1.80
2024-02-09T00:43:09.453Z,1.70
2024-02-09T00:45:40.925Z,2.00
2024-02-09T00:48:12.990Z,3.00
2024-02-09T00:50:44.449Z,9.30
2024-02-09T00:53:15.547Z,6.30
2024-02-09T00:58:16.629Z,2.90
2024-02-09T01:00:47.876Z,2.10
2024-02-09T01:03:21.547Z,1.80
2024-02-09T01:05:55.791Z,2.20
2024-02-09T01:08:30.463Z,2.10
2024-02-09T01:11:02.024Z,2.40
2024-02-09T01:13:51.586Z,3.10
2024-02-09T01:16:40.490Z,2.50
2024-02-09T01:19:29.002Z,2.00
2024-02-09T01:22:17.788Z,3.10
2024-02-09T01:25:06.672Z,3.10
2024-02-09T01:27:55.345Z,2.40
2024-02-09T01:30:44.041Z,2.10
2024-02-09T01:33:33.067Z,2.30
2024-02-09T01:36:21.812Z,2.40
2024-02-09T01:39:10.538Z,1.90
2024-02-09T01:41:59.121Z,2.50
2024-02-09T01:44:47.787Z,2.50
2024-02-09T01:47:37.315Z,2.50
2024-02-09T01:50:27.725Z,3.60
2024-02-09T01:53:17.259Z,3.00
2024-02-09T01:56:06.247Z,3.20
2024-02-09T01:58:55.240Z,2.50
2024-02-09T02:01:44.550Z,3.70
2024-02-09T02:04:33.907Z,2.70
2024-02-09T02:07:23.056Z,3.20
2024-02-09T02:10:11.560Z,3.10
2024-02-09T02:13:00.463Z,3.30
2024-02-09T02:15:49.026Z,2.60
2024-02-09T02:18:37.446Z,3.00
2024-02-09T02:21:26.485Z,2.80
2024-02-09T02:24:18.321Z,2.90
2024-02-09T02:27:06.876Z,3.20
2024-02-09T02:29:56.060Z,3.00
2024-02-09T02:32:45.068Z,3.00
2024-02-09T02:35:33.749Z,2.60
2024-02-09T02:38:22.237Z,2.70
2024-02-09T02:41:11.797Z,2.90
2024-02-09T02:43:41.669Z,2.50
2024-02-09T02:46:16.141Z,2.90
2024-02-09T02:49:05.999Z,2.90
2024-02-09T02:51:54.601Z,2.60
2024-02-09T02:54:43.248Z,3.20
2024-02-09T02:57:31.897Z,2.40
2024-02-09T03:00:20.265Z,2.50
2024-02-09T03:03:08.895Z,3.20
2024-02-09T03:05:40.964Z,2.90
2024-02-09T03:08:44.708Z,2.90
2024-02-09T03:11:05.186Z,2.90
2024-02-09T03:13:36.409Z,4.30
2024-02-09T03:21:07.462Z,3.00
2024-02-09T03:23:38.680Z,3.00
2024-02-09T03:26:10.093Z,3.20
2024-02-09T03:28:41.331Z,3.10
2024-02-09T03:31:14.169Z,3.30
2024-02-09T03:33:45.772Z,3.70
2024-02-09T03:36:21.893Z,3.40
2024-02-09T03:38:52.964Z,3.00
2024-02-09T03:41:26.948Z,3.10
2024-02-09T03:44:06.335Z,4.10
2024-02-09T03:46:37.940Z,3.20
2024-02-09T03:49:12.468Z,3.00
2024-02-09T03:51:43.661Z,3.00
2024-02-09T03:54:14.679Z,3.60
2024-02-09T03:59:16.614Z,3.20
2024-02-09T04:01:48.119Z,3.50
2024-02-09T04:04:20.136Z,2.40
2024-02-09T04:06:51.443Z,2.10
2024-02-09T04:09:40.838Z,3.90
2024-02-09T04:12:13.937Z,3.50
2024-02-09T04:14:45.379Z,3.70
2024-02-09T04:17:16.488Z,3.30
2024-02-09T04:24:48.331Z,2.90
2024-02-09T04:27:19.494Z,2.60
2024-02-09T04:29:51.048Z,3.70
2024-02-09T04:32:22.072Z,3.70
2024-02-09T04:34:53.607Z,4.00
2024-02-09T04:37:24.860Z,4.10
2024-02-09T04:42:25.758Z,4.00
2024-02-09T04:44:56.865Z,4.10
2024-02-09T04:47:27.882Z,3.80
2024-02-09T04:49:58.945Z,3.70
2024-02-09T04:52:30.926Z,4.50
2024-02-09T04:55:02.055Z,4.30
2024-02-09T04:57:33.758Z,3.30
2024-02-09T05:00:05.280Z,4.40
2024-02-09T05:02:37.905Z,3.50
2024-02-09T05:05:09.978Z,4.40
2024-02-09T05:07:41.200Z,3.70
2024-02-09T05:10:13.764Z,3.50
2024-02-09T05:12:44.922Z,3.70
2024-02-09T05:15:18.120Z,3.90
2024-02-09T05:17:49.412Z,4.20
2024-02-09T05:22:50.025Z,3.50
2024-02-09T05:27:57.607Z,3.90
2024-02-09T05:30:30.628Z,4.30
2024-02-09T05:33:04.108Z,5.40
2024-02-09T05:35:35.165Z,4.30
2024-02-09T05:38:06.396Z,4.40
2024-02-09T05:40:37.589Z,4.80
2024-02-09T05:45:38.313Z,4.10
2024-02-09T05:48:10.716Z,5.10
2024-02-09T05:50:42.084Z,5.50
2024-02-09T05:53:13.990Z,5.00
2024-02-09T05:55:46.675Z,5.90
2024-02-09T05:58:17.975Z,6.00
2024-02-09T06:00:49.056Z,6.20
2024-02-09T06:03:20.495Z,4.80
2024-02-09T06:08:22.134Z,6.20
2024-02-09T06:10:53.412Z,6.30
2024-02-09T06:13:27.228Z,6.30
2024-02-09T06:15:59.785Z,5.20
2024-02-09T06:18:31.293Z,4.70
2024-02-09T06:21:04.274Z,5.20
2024-02-09T06:23:37.047Z,5.30
2024-02-09T06:26:09.801Z,6.30
2024-02-09T06:28:41.398Z,5.30
2024-02-09T06:31:16.545Z,6.00
2024-02-09T06:33:51.508Z,6.00
2024-02-09T06:36:23.547Z,5.90
2024-02-09T06:38:55.638Z,5.90
2024-02-09T06:41:26.813Z,6.90
2024-02-09T06:43:58.410Z,6.40
2024-02-09T06:46:29.589Z,5.80
2024-02-09T06:49:01.786Z,5.00
2024-02-09T06:51:33.244Z,5.00
2024-02-09T06:56:33.804Z,5.70
2024-02-09T06:59:07.360Z,7.30
2024-02-09T07:01:39.716Z,6.50
2024-02-09T07:04:17.820Z,7.00
2024-02-09T07:06:49.546Z,8.60
2024-02-09T07:09:32.860Z,15.80
2024-02-09T07:12:06.884Z,8.10
2024-02-09T07:14:38.059Z,7.50
2024-02-09T07:19:38.875Z,7.70
2024-02-09T07:24:39.962Z,6.40
2024-02-09T07:27:11.129Z,7.10
2024-02-09T07:29:42.146Z,8.40
2024-02-09T07:34:42.985Z,4.60
2024-02-09T07:37:14.562Z,4.90
2024-02-09T07:39:45.558Z,4.80
2024-02-09T07:44:46.034Z,4.40
2024-02-09T07:47:17.304Z,4.90
2024-02-09T07:49:48.308Z,5.00
2024-02-09T07:52:22.218Z,4.10
2024-02-09T07:54:53.231Z,3.90
2024-02-09T07:57:24.206Z,3.70
2024-02-09T07:59:55.426Z,5.10
2024-02-09T08:02:26.999Z,11.00
2024-02-09T08:04:58.072Z,7.50
2024-02-09T08:07:29.291Z,6.00
2024-02-09T08:12:29.754Z,4.00
2024-02-09T08:15:00.729Z,4.10
2024-02-09T08:17:34.896Z,4.10
2024-02-09T08:20:06.903Z,6.30
2024-02-09T08:22:44.964Z,7.00
2024-02-09T08:25:16.581Z,23.30
2024-02-09T08:27:48.321Z,33.60
2024-02-09T08:30:19.518Z,9.30
2024-02-09T08:32:51.187Z,8.20
2024-02-09T08:37:52.635Z,5.80
2024-02-09T08:40:24.214Z,6.80
2024-02-09T08:42:55.553Z,13.80
2024-02-09T08:45:26.711Z,29.50
2024-02-09T08:47:57.768Z,21.20
2024-02-09T08:52:58.463Z,15.40
2024-02-09T08:55:29.806Z,6.00
2024-02-09T08:58:01.059Z,5.60
2024-02-09T09:00:33.155Z,4.60
2024-02-09T09:03:04.874Z,5.20
2024-02-09T09:05:35.965Z,4.80
2024-02-09T09:08:08.436Z,7.20
2024-02-09T09:10:40.319Z,5.90
2024-02-09T09:13:12.816Z,6.40
2024-02-09T09:15:44.014Z,6.20
2024-02-09T09:18:15.116Z,5.60
2024-02-09T09:20:46.961Z,4.80
2024-02-09T09:23:18.630Z,8.10
2024-02-09T09:25:50.636Z,5.60
2024-02-09T09:28:22.361Z,6.50
2024-02-09T09:30:53.351Z,4.60
2024-02-09T09:33:25.000Z,5.20
2024-02-09T09:35:56.679Z,6.70
2024-02-09T09:38:28.000Z,6.20
2024-02-09T09:40:59.736Z,5.20
2024-02-09T09:43:31.278Z,4.90
2024-02-09T09:46:02.401Z,5.50
2024-02-09T09:48:35.202Z,4.50
2024-02-09T09:51:07.344Z,4.50
2024-02-09T09:53:43.897Z,6.00
2024-02-09T09:56:16.048Z,6.50
2024-02-09T09:58:47.702Z,5.40
2024-02-09T10:01:21.618Z,5.80
2024-02-09T10:03:54.978Z,9.00
2024-02-09T10:06:29.662Z,5.10
2024-02-09T10:09:01.245Z,11.10
2024-02-09T10:11:35.224Z,7.00
2024-02-09T10:14:16.398Z,6.00
2024-02-09T10:16:48.979Z,4.30
2024-02-09T10:19:20.562Z,7.20
2024-02-09T10:21:57.182Z,5.10
2024-02-09T10:24:30.689Z,3.40
2024-02-09T10:29:32.485Z,5.00
2024-02-09T10:32:03.691Z,5.10
2024-02-09T10:34:34.989Z,4.30
2024-02-09T10:37:13.700Z,6.70
2024-02-09T10:39:48.536Z,6.10
2024-02-09T10:47:20.830Z,4.70
2024-02-09T10:49:52.490Z,9.30
2024-02-09T10:52:27.278Z,6.10
2024-02-09T10:54:59.409Z,4.80
2024-02-09T10:57:30.905Z,7.10
2024-02-09T11:00:03.043Z,8.30
2024-02-09T11:02:37.250Z,5.90
2024-02-09T11:05:16.244Z,4.30
2024-02-09T11:07:50.684Z,5.40
2024-02-09T11:10:22.795Z,4.80
2024-02-09T11:13:01.594Z,4.90
2024-02-09T11:15:35.728Z,5.70
2024-02-09T11:18:09.795Z,6.60
2024-02-09T11:20:41.435Z,8.70
2024-02-09T11:23:14.580Z,7.00
2024-02-09T11:25:49.729Z,12.10
2024-02-09T11:28:21.685Z,5.80
2024-02-09T11:30:55.642Z,7.60
2024-02-09T11:33:27.189Z,5.60
2024-02-09T11:35:59.455Z,6.70
2024-02-09T11:38:30.501Z,11.00
2024-02-09T11:41:01.810Z,5.70
2024-02-09T11:43:34.707Z,9.30
2024-02-09T11:46:07.424Z,6.00
2024-02-09T11:48:41.481Z,5.50
2024-02-09T11:51:12.535Z,4.60
2024-02-09T11:53:44.313Z,7.00
2024-02-09T11:56:16.036Z,8.60
2024-02-09T11:58:50.672Z,7.60
2024-02-09T12:01:22.618Z,7.40
2024-02-09T12:03:54.267Z,5.60
2024-02-09T12:06:25.633Z,6.00
2024-02-09T12:08:57.863Z,5.90
2024-02-09T12:11:28.964Z,6.40
2024-02-09T12:13:59.961Z,4.50
2024-02-09T12:16:31.134Z,8.10
2024-02-09T12:19:02.387Z,4.50
2024-02-09T12:21:34.267Z,5.90
2024-02-09T12:24:06.386Z,4.30
2024-02-09T12:26:38.424Z,6.00
2024-02-09T12:29:15.931Z,10.90
2024-02-09T12:31:50.252Z,11.50
2024-02-09T12:34:21.591Z,6.30
2024-02-09T12:37:00.453Z,5.80
2024-02-09T12:39:31.702Z,7.30
2024-02-09T12:42:03.807Z,7.90
2024-02-09T12:44:34.912Z,7.00
2024-02-09T12:47:08.631Z,6.00
2024-02-09T12:49:39.847Z,5.20
2024-02-09T12:52:15.635Z,4.50
2024-02-09T12:54:47.911Z,5.60
2024-02-09T12:57:19.450Z,6.10
2024-02-09T12:59:50.611Z,5.70
2024-02-09T13:02:24.310Z,6.00
2024-02-09T13:04:55.625Z,6.00
2024-02-09T13:07:26.704Z,6.10
2024-02-09T13:09:58.232Z,6.30
2024-02-09T13:12:30.355Z,4.60
2024-02-09T13:15:02.933Z,18.60
2024-02-09T13:17:36.751Z,8.80
2024-02-09T13:20:10.753Z,12.20
2024-02-09T13:22:41.990Z,6.90
2024-02-09T13:25:15.686Z,5.80
2024-02-09T13:27:47.700Z,8.00
2024-02-09T13:30:21.338Z,6.90
2024-02-09T13:32:52.400Z,7.70
2024-02-09T13:35:24.201Z,14.20
2024-02-09T13:37:55.913Z,6.70
2024-02-09T13:40:26.979Z,8.00
2024-02-09T13:42:58.548Z,8.10
2024-02-09T13:45:29.764Z,8.50
2024-02-09T13:48:01.685Z,13.10
2024-02-09T13:50:33.710Z,8.60
2024-02-09T13:53:05.400Z,7.20
2024-02-09T13:55:38.431Z,61.50
2024-02-09T13:58:10.519Z,32.20
2024-02-09T14:00:44.011Z,18.60
2024-02-09T14:03:15.325Z,14.50
2024-02-09T14:05:50.931Z,9.40
2024-02-09T14:08:23.956Z,6.10
2024-02-09T14:10:55.581Z,4.90
2024-02-09T14:13:26.801Z,5.60
2024-02-09T14:15:58.033Z,7.20
2024-02-09T14:18:29.359Z,13.20
2024-02-09T14:21:00.479Z,10.20
2024-02-09T14:23:33.632Z,17.70
2024-02-09T14:26:04.804Z,17.50
2024-02-09T14:28:35.949Z,9.80
2024-02-09T14:31:07.246Z,11.90
2024-02-09T14:33:38.357Z,20.50
2024-02-09T14:36:17.880Z,13.60
2024-02-09T14:38:48.866Z,5.40
2024-02-09T14:41:21.301Z,5.20
2024-02-09T14:43:53.070Z,6.00
2024-02-09T14:46:26.625Z,13.90
2024-02-09T14:48:57.773Z,18.60
2024-02-09T14:53:58.496Z,8.60
2024-02-09T14:56:36.285Z,6.10
2024-02-09T14:59:11.177Z,5.90
2024-02-09T15:01:42.796Z,5.10
2024-02-09T15:04:14.112Z,4.70
2024-02-09T15:06:46.222Z,4.90
2024-02-09T15:09:18.275Z,5.90
2024-02-09T15:11:49.265Z,5.40
2024-02-09T15:14:20.349Z,6.60
2024-02-09T15:16:53.662Z,6.40
2024-02-09T15:19:24.930Z,6.20
2024-02-09T15:21:56.029Z,5.10
2024-02-09T15:24:27.117Z,7.10
2024-02-09T15:26:58.178Z,20.20
2024-02-09T15:29:29.844Z,39.90
2024-02-09T15:32:00.858Z,22.30
2024-02-09T15:34:33.498Z,5.70
2024-02-09T15:37:10.083Z,5.70
2024-02-09T15:39:41.117Z,10.00
2024-02-09T15:42:16.183Z,6.60
2024-02-09T15:44:47.900Z,4.40
2024-02-09T15:47:19.243Z,47.20
2024-02-09T15:49:50.840Z,32.30
2024-02-09T15:52:22.035Z,11.00
2024-02-09T15:54:54.185Z,25.10
2024-02-09T15:57:28.599Z,18.70
2024-02-09T15:59:59.871Z,48.70
2024-02-09T16:02:35.410Z,25.30
2024-02-09T16:05:09.863Z,23.10
2024-02-09T16:07:41.908Z,29.00
2024-02-09T16:10:19.342Z,20.40
2024-02-09T16:12:54.277Z,16.50
2024-02-09T16:15:25.675Z,17.70
2024-02-09T16:17:57.513Z,17.30
2024-02-09T16:20:28.882Z,18.70
2024-02-09T16:22:59.876Z,17.00
2024-02-09T16:28:00.739Z,13.80
2024-02-09T16:30:33.603Z,14.40
2024-02-09T16:33:04.847Z,15.10
2024-02-09T16:35:39.384Z,21.20
2024-02-09T16:38:10.543Z,25.30
2024-02-09T16:40:41.617Z,45.90
2024-02-09T16:43:12.993Z,23.10
2024-02-09T16:45:44.878Z,25.30
2024-02-09T16:48:17.064Z,20.00
2024-02-09T16:50:49.215Z,20.90
2024-02-09T16:53:20.503Z,19.20
2024-02-09T16:55:51.797Z,19.80
2024-02-09T16:58:23.409Z,16.90
2024-02-09T17:00:55.295Z,23.30
2024-02-09T17:03:28.747Z,28.70
2024-02-09T17:06:00.217Z,25.10
2024-02-09T17:08:31.294Z,22.10
2024-02-09T17:11:02.915Z,24.30
2024-02-09T17:13:34.157Z,14.70
2024-02-09T17:16:05.997Z,14.60
2024-02-09T17:18:37.354Z,13.90
2024-02-09T17:21:09.901Z,19.50
2024-02-09T17:23:41.003Z,22.60
2024-02-09T17:28:42.472Z,17.00
2024-02-09T17:31:13.621Z,16.10
2024-02-09T17:33:44.921Z,12.40
2024-02-09T17:36:16.477Z,13.30
2024-02-09T17:38:48.159Z,12.00
2024-02-09T17:41:19.500Z,14.00
2024-02-09T17:43:50.782Z,14.90
2024-02-09T17:46:21.770Z,15.60
2024-02-09T17:48:53.036Z,16.80
2024-02-09T17:51:24.096Z,17.30
2024-02-09T17:53:55.126Z,17.40
2024-02-09T17:58:55.939Z,15.60
2024-02-09T18:01:35.412Z,16.10
2024-02-09T18:04:06.845Z,20.40
2024-02-09T18:06:39.939Z,23.20
2024-02-09T18:09:11.655Z,20.50
2024-02-09T18:11:42.731Z,20.50
2024-02-09T18:14:13.753Z,19.20
2024-02-09T18:19:15.530Z,18.40
2024-02-09T18:21:46.484Z,27.40
2024-02-09T18:24:17.457Z,17.30
2024-02-09T18:26:48.369Z,16.60
2024-02-09T18:29:20.194Z,15.50
2024-02-09T18:31:53.156Z,28.40
2024-02-09T18:34:24.346Z,21.30
2024-02-09T18:36:57.774Z,21.40
2024-02-09T18:39:28.784Z,39.00
2024-02-09T18:41:59.916Z,38.70
2024-02-09T18:47:01.755Z,32.70
2024-02-09T18:49:33.569Z,28.70
2024-02-09T18:52:04.926Z,28.40
2024-02-09T18:54:37.301Z,24.80
2024-02-09T18:57:08.729Z,27.80
2024-02-09T18:59:39.857Z,44.20
2024-02-09T19:02:10.966Z,39.40
2024-02-09T19:04:44.326Z,40.90
2024-02-09T19:07:15.948Z,28.70
2024-02-09T19:12:16.420Z,26.50
2024-02-09T19:14:48.530Z,25.70
2024-02-09T19:17:19.559Z,22.00
2024-02-09T19:22:20.810Z,13.00
2024-02-09T19:24:51.975Z,14.00
2024-02-09T19:29:53.504Z,13.50
2024-02-09T19:32:25.172Z,17.80
2024-02-09T19:34:56.791Z,18.80
2024-02-09T19:37:28.580Z,24.20
2024-02-09T19:40:00.725Z,24.70
2024-02-09T19:42:34.538Z,21.90
2024-02-09T19:45:06.102Z,19.30
2024-02-09T19:47:41.056Z,19.60
2024-02-09T19:50:16.037Z,17.90
2024-02-09T19:52:47.539Z,14.10
2024-02-09T19:55:19.257Z,14.10
2024-02-09T19:57:51.109Z,15.80
2024-02-09T20:00:23.605Z,17.10
2024-02-09T20:02:59.687Z,14.60
2024-02-09T20:05:38.611Z,19.20
2024-02-09T20:08:10.208Z,19.40
2024-02-09T20:10:41.250Z,18.90
2024-02-09T20:13:12.365Z,20.70
2024-02-09T20:18:13.160Z,18.50
2024-02-09T20:20:45.487Z,20.30
2024-02-09T20:23:17.016Z,22.90
2024-02-09T20:25:48.287Z,23.80
2024-02-09T20:28:19.435Z,23.30
2024-02-09T20:33:21.999Z,21.50
2024-02-09T20:35:56.747Z,18.70
2024-02-09T20:38:30.712Z,17.80
2024-02-09T20:41:01.928Z,16.30
2024-02-09T20:43:33.471Z,15.00
2024-02-09T20:46:04.501Z,16.80
2024-02-09T20:51:07.112Z,15.80
2024-02-09T20:53:47.158Z,16.00
2024-02-09T20:56:18.268Z,16.40
2024-02-09T20:58:53.027Z,16.40
2024-02-09T21:01:24.346Z,17.60
2024-02-09T21:03:56.638Z,18.20
2024-02-09T21:06:29.971Z,23.70
2024-02-09T21:09:03.064Z,19.90
2024-02-09T21:11:34.227Z,20.00
2024-02-09T21:14:05.383Z,18.40
2024-02-09T21:16:36.684Z,25.70
2024-02-09T21:19:08.984Z,38.50
2024-02-09T21:21:41.911Z,44.00
2024-02-09T21:24:13.706Z,36.80
2024-02-09T21:26:44.951Z,25.50
2024-02-09T21:31:50.503Z,29.20
2024-02-09T21:34:21.768Z,31.10
2024-02-09T21:36:54.065Z,27.00
2024-02-09T21:39:25.242Z,24.00
2024-02-09T21:41:56.135Z,25.50
2024-02-09T21:44:27.498Z,23.10
2024-02-09T21:46:58.593Z,25.70
2024-02-09T21:49:34.170Z,28.60
2024-02-09T21:52:06.408Z,28.00
2024-02-09T21:54:37.386Z,27.10
2024-02-09T21:59:39.934Z,21.40
2024-02-09T22:02:12.639Z,19.10
2024-02-09T22:04:43.962Z,18.80
2024-02-09T22:07:15.073Z,21.80
2024-02-09T22:12:25.035Z,20.30
2024-02-09T22:14:56.906Z,18.20
2024-02-09T22:17:29.283Z,17.00
2024-02-09T22:20:00.893Z,19.20
2024-02-09T22:22:34.774Z,20.20
2024-02-09T22:25:08.710Z,17.80
2024-02-09T22:27:41.464Z,20.20
2024-02-09T22:30:14.296Z,17.90
2024-02-09T22:32:45.384Z,18.60
2024-02-09T22:35:17.390Z,21.10
2024-02-09T22:37:49.101Z,21.50
2024-02-09T22:40:20.794Z,18.20
2024-02-09T22:42:54.652Z,18.20
2024-02-09T22:45:25.993Z,17.60
2024-02-09T22:47:57.347Z,13.80
2024-02-09T22:50:28.715Z,11.50
2024-02-09T22:52:59.905Z,13.30
2024-02-09T22:55:31.112Z,15.40
2024-02-09T22:58:03.703Z,13.70
2024-02-09T23:00:37.482Z,12.20
2024-02-09T23:03:10.641Z,11.60
2024-02-09T23:05:42.281Z,15.40
2024-02-09T23:08:13.980Z,14.60
2024-02-09T23:10:45.118Z,13.10
2024-02-09T23:15:45.494Z,11.30
2024-02-09T23:18:16.573Z,12.10
2024-02-09T23:20:48.964Z,12.70
2024-02-09T23:23:19.938Z,12.40
2024-02-09T23:25:52.632Z,11.30
2024-02-09T23:28:29.833Z,15.90
2024-02-09T23:31:01.994Z,13.70
2024-02-09T23:33:33.322Z,89.00
2024-02-09T23:36:04.493Z,14.30
2024-02-09T23:38:36.580Z,11.50
2024-02-09T23:41:07.772Z,12.30
2024-02-09T23:46:09.149Z,10.90
2024-02-09T23:48:42.107Z,12.50
2024-02-09T23:51:13.432Z,11.80
2024-02-09T23:53:44.435Z,12.30
2024-02-09T23:56:15.584Z,13.30
2024-02-09T23:58:48.040Z,13.90
